sensor_id;sensor_type;location;lat;lon;timestamp;temperature;humidity
51825;DHT22;37879;52.986;6.282;2023-10-31T00:01:20;10.40;99.90
51825;DHT22;37879;52.986;6.282;2023-10-31T00:03:46;10.20;99.90
51825;DHT22;37879;52.986;6.282;2023-10-31T00:06:11;10.10;99.90
51825;DHT22;37879;52.986;6.282;2023-10-31T00:08:37;10.10;99.90
51825;DHT22;37879;52.986;6.282;2023-10-31T00:11:03;10.10;99.90
51825;DHT22;37879;52.986;6.282;2023-10-31T00:13:28;10.00;99.90
51825;DHT22;37879;52.986;6.282;2023-10-31T00:15:54;10.00;99.90
51825;DHT22;37879;52.986;6.282;2023-10-31T00:18:20;9.90;99.90
51825;DHT22;37879;52.986;6.282;2023-10-31T00:20:46;9.90;99.90
51825;DHT22;37879;52.986;6.282;2023-10-31T00:23:12;9.90;99.90
51825;DHT22;37879;52.986;6.282;2023-10-31T00:25:38;9.80;99.90
51825;DHT22;37879;52.986;6.282;2023-10-31T00:28:03;9.70;99.90
51825;DHT22;37879;52.986;6.282;2023-10-31T00:30:29;9.70;99.90
51825;DHT22;37879;52.986;6.282;2023-10-31T00:32:55;11.20;99.90
51825;DHT22;37879;52.986;6.282;2023-10-31T00:35:20;9.70;99.90
51825;DHT22;37879;52.986;6.282;2023-10-31T00:37:46;10.00;99.90
51825;DHT22;37879;52.986;6.282;2023-10-31T00:40:12;9.90;99.90
51825;DHT22;37879;52.986;6.282;2023-10-31T00:42:38;9.80;99.90
51825;DHT22;37879;52.986;6.282;2023-10-31T00:45:06;10.10;99.90
51825;DHT22;37879;52.986;6.282;2023-10-31T00:47:32;9.80;99.90
51825;DHT22;37879;52.986;6.282;2023-10-31T00:49:58;9.80;99.90
51825;DHT22;37879;52.986;6.282;2023-10-31T00:52:24;11.30;99.90
51825;DHT22;37879;52.986;6.282;2023-10-31T00:54:50;9.70;99.90
51825;DHT22;37879;52.986;6.282;2023-10-31T00:57:15;9.80;99.90
51825;DHT22;37879;52.986;6.282;2023-10-31T00:59:41;9.70;99.90
51825;DHT22;37879;52.986;6.282;2023-10-31T01:02:07;9.80;99.90
51825;DHT22;37879;52.986;6.282;2023-10-31T01:04:32;9.80;99.90
51825;DHT22;37879;52.986;6.282;2023-10-31T01:06:58;9.80;99.90
51825;DHT22;37879;52.986;6.282;2023-10-31T01:09:24;9.80;99.90
51825;DHT22;37879;52.986;6.282;2023-10-31T01:11:49;9.80;99.90
51825;DHT22;37879;52.986;6.282;2023-10-31T01:14:15;10.00;99.90
51825;DHT22;37879;52.986;6.282;2023-10-31T01:16:41;9.90;99.90
51825;DHT22;37879;52.986;6.282;2023-10-31T01:19:06;9.90;99.90
51825;DHT22;37879;52.986;6.282;2023-10-31T01:21:33;10.20;99.90
51825;DHT22;37879;52.986;6.282;2023-10-31T01:23:59;9.90;99.90
51825;DHT22;37879;52.986;6.282;2023-10-31T01:26:25;9.90;99.90
51825;DHT22;37879;52.986;6.282;2023-10-31T01:28:52;9.90;99.90
51825;DHT22;37879;52.986;6.282;2023-10-31T01:31:18;9.90;99.90
51825;DHT22;37879;52.986;6.282;2023-10-31T01:33:43;9.90;99.90
51825;DHT22;37879;52.986;6.282;2023-10-31T01:36:09;9.90;99.90
51825;DHT22;37879;52.986;6.282;2023-10-31T01:38:36;9.90;99.90
51825;DHT22;37879;52.986;6.282;2023-10-31T01:41:02;9.80;99.90
51825;DHT22;37879;52.986;6.282;2023-10-31T01:43:35;9.80;99.90
51825;DHT22;37879;52.986;6.282;2023-10-31T01:46:02;9.80;99.90
51825;DHT22;37879;52.986;6.282;2023-10-31T01:48:29;9.70;99.90
51825;DHT22;37879;52.986;6.282;2023-10-31T01:50:57;9.80;99.90
51825;DHT22;37879;52.986;6.282;2023-10-31T01:53:25;9.70;99.90
51825;DHT22;37879;52.986;6.282;2023-10-31T01:55:52;9.80;99.90
51825;DHT22;37879;52.986;6.282;2023-10-31T01:58:20;9.80;99.90
51825;DHT22;37879;52.986;6.282;2023-10-31T02:00:46;9.80;99.90
51825;DHT22;37879;52.986;6.282;2023-10-31T02:03:13;9.80;99.90
51825;DHT22;37879;52.986;6.282;2023-10-31T02:05:39;9.80;99.90
51825;DHT22;37879;52.986;6.282;2023-10-31T02:08:05;9.70;99.90
51825;DHT22;37879;52.986;6.282;2023-10-31T02:10:34;9.80;99.90
51825;DHT22;37879;52.986;6.282;2023-10-31T02:13:10;9.80;99.90
51825;DHT22;37879;52.986;6.282;2023-10-31T02:15:36;8.70;99.90
51825;DHT22;37879;52.986;6.282;2023-10-31T02:18:02;9.80;99.90
51825;DHT22;37879;52.986;6.282;2023-10-31T02:20:27;9.80;99.90
51825;DHT22;37879;52.986;6.282;2023-10-31T02:22:53;10.40;99.90
51825;DHT22;37879;52.986;6.282;2023-10-31T02:25:19;9.80;99.90
51825;DHT22;37879;52.986;6.282;2023-10-31T02:27:45;9.80;99.90
51825;DHT22;37879;52.986;6.282;2023-10-31T02:30:11;9.80;99.90
51825;DHT22;37879;52.986;6.282;2023-10-31T02:32:37;9.80;99.90
51825;DHT22;37879;52.986;6.282;2023-10-31T02:35:03;9.80;99.90
51825;DHT22;37879;52.986;6.282;2023-10-31T02:37:28;9.80;99.90
51825;DHT22;37879;52.986;6.282;2023-10-31T02:39:54;9.90;99.90
51825;DHT22;37879;52.986;6.282;2023-10-31T02:42:20;9.90;99.90
51825;DHT22;37879;52.986;6.282;2023-10-31T02:44:45;9.90;99.90
51825;DHT22;37879;52.986;6.282;2023-10-31T02:47:11;9.90;99.90
51825;DHT22;37879;52.986;6.282;2023-10-31T02:49:37;9.80;99.90
51825;DHT22;37879;52.986;6.282;2023-10-31T02:52:03;9.90;99.90
51825;DHT22;37879;52.986;6.282;2023-10-31T02:54:28;9.90;99.90
51825;DHT22;37879;52.986;6.282;2023-10-31T02:56:54;9.90;99.90
51825;DHT22;37879;52.986;6.282;2023-10-31T02:59:20;9.90;99.90
51825;DHT22;37879;52.986;6.282;2023-10-31T03:01:45;10.00;99.90
51825;DHT22;37879;52.986;6.282;2023-10-31T03:04:11;10.00;99.90
51825;DHT22;37879;52.986;6.282;2023-10-31T03:06:37;9.90;99.90
51825;DHT22;37879;52.986;6.282;2023-10-31T03:09:03;9.80;99.90
51825;DHT22;37879;52.986;6.282;2023-10-31T03:11:28;9.90;99.90
51825;DHT22;37879;52.986;6.282;2023-10-31T03:13:54;9.90;99.90
51825;DHT22;37879;52.986;6.282;2023-10-31T03:16:22;9.90;99.90
51825;DHT22;37879;52.986;6.282;2023-10-31T03:18:47;9.90;99.90
51825;DHT22;37879;52.986;6.282;2023-10-31T03:21:13;9.90;99.90
51825;DHT22;37879;52.986;6.282;2023-10-31T03:23:41;9.90;99.90
51825;DHT22;37879;52.986;6.282;2023-10-31T03:26:07;10.00;99.90
51825;DHT22;37879;52.986;6.282;2023-10-31T03:28:32;10.00;99.90
51825;DHT22;37879;52.986;6.282;2023-10-31T03:30:58;10.00;99.90
51825;DHT22;37879;52.986;6.282;2023-10-31T03:33:24;10.00;99.90
51825;DHT22;37879;52.986;6.282;2023-10-31T03:35:49;10.00;99.90
51825;DHT22;37879;52.986;6.282;2023-10-31T03:38:15;10.00;99.90
51825;DHT22;37879;52.986;6.282;2023-10-31T03:40:41;10.10;99.90
51825;DHT22;37879;52.986;6.282;2023-10-31T03:43:06;10.10;99.90
51825;DHT22;37879;52.986;6.282;2023-10-31T03:45:32;10.10;99.90
51825;DHT22;37879;52.986;6.282;2023-10-31T03:47:58;10.10;99.90
51825;DHT22;37879;52.986;6.282;2023-10-31T03:50:24;10.10;99.90
51825;DHT22;37879;52.986;6.282;2023-10-31T03:52:49;10.10;99.90
51825;DHT22;37879;52.986;6.282;2023-10-31T03:55:15;10.10;99.90
51825;DHT22;37879;52.986;6.282;2023-10-31T03:57:41;10.10;99.90
51825;DHT22;37879;52.986;6.282;2023-10-31T04:00:07;10.10;99.90
51825;DHT22;37879;52.986;6.282;2023-10-31T04:02:33;10.10;99.90
51825;DHT22;37879;52.986;6.282;2023-10-31T04:04:59;10.10;99.90
51825;DHT22;37879;52.986;6.282;2023-10-31T04:07:24;10.10;99.90
51825;DHT22;37879;52.986;6.282;2023-10-31T04:09:50;10.10;99.90
51825;DHT22;37879;52.986;6.282;2023-10-31T04:12:16;10.10;99.90
51825;DHT22;37879;52.986;6.282;2023-10-31T04:14:42;10.10;99.90
51825;DHT22;37879;52.986;6.282;2023-10-31T04:17:08;10.10;99.90
51825;DHT22;37879;52.986;6.282;2023-10-31T04:19:36;10.10;99.90
51825;DHT22;37879;52.986;6.282;2023-10-31T04:22:02;10.10;99.90
51825;DHT22;37879;52.986;6.282;2023-10-31T04:24:28;10.10;99.90
51825;DHT22;37879;52.986;6.282;2023-10-31T04:26:53;10.10;99.90
51825;DHT22;37879;52.986;6.282;2023-10-31T04:29:19;10.10;99.90
51825;DHT22;37879;52.986;6.282;2023-10-31T04:31:45;10.10;99.90
51825;DHT22;37879;52.986;6.282;2023-10-31T04:34:10;10.10;99.90
51825;DHT22;37879;52.986;6.282;2023-10-31T04:36:36;10.10;99.90
51825;DHT22;37879;52.986;6.282;2023-10-31T04:39:02;10.10;99.90
51825;DHT22;37879;52.986;6.282;2023-10-31T04:41:28;9.30;99.90
51825;DHT22;37879;52.986;6.282;2023-10-31T04:43:54;10.00;99.90
51825;DHT22;37879;52.986;6.282;2023-10-31T04:46:19;10.00;99.90
51825;DHT22;37879;52.986;6.282;2023-10-31T04:48:45;10.10;99.90
51825;DHT22;37879;52.986;6.282;2023-10-31T04:51:10;10.00;99.90
51825;DHT22;37879;52.986;6.282;2023-10-31T04:53:36;10.00;99.90
51825;DHT22;37879;52.986;6.282;2023-10-31T04:56:02;9.90;99.90
51825;DHT22;37879;52.986;6.282;2023-10-31T04:58:28;9.90;99.90
51825;DHT22;37879;52.986;6.282;2023-10-31T05:00:53;10.00;99.90
51825;DHT22;37879;52.986;6.282;2023-10-31T05:03:19;9.90;99.90
51825;DHT22;37879;52.986;6.282;2023-10-31T05:05:45;10.00;99.90
51825;DHT22;37879;52.986;6.282;2023-10-31T05:08:11;9.90;99.90
51825;DHT22;37879;52.986;6.282;2023-10-31T05:10:36;9.90;99.90
51825;DHT22;37879;52.986;6.282;2023-10-31T05:13:02;9.90;99.90
51825;DHT22;37879;52.986;6.282;2023-10-31T05:15:28;9.90;99.90
51825;DHT22;37879;52.986;6.282;2023-10-31T05:17:54;10.20;99.90
51825;DHT22;37879;52.986;6.282;2023-10-31T05:20:20;9.90;99.90
51825;DHT22;37879;52.986;6.282;2023-10-31T05:22:46;9.90;99.90
51825;DHT22;37879;52.986;6.282;2023-10-31T05:25:11;9.90;99.90
51825;DHT22;37879;52.986;6.282;2023-10-31T05:27:37;10.10;99.90
51825;DHT22;37879;52.986;6.282;2023-10-31T05:30:03;9.90;99.90
51825;DHT22;37879;52.986;6.282;2023-10-31T05:32:29;10.00;99.90
51825;DHT22;37879;52.986;6.282;2023-10-31T05:34:55;10.00;99.90
51825;DHT22;37879;52.986;6.282;2023-10-31T05:37:21;10.00;99.90
51825;DHT22;37879;52.986;6.282;2023-10-31T05:39:47;9.90;99.90
51825;DHT22;37879;52.986;6.282;2023-10-31T05:42:12;10.00;99.90
51825;DHT22;37879;52.986;6.282;2023-10-31T05:44:38;10.00;99.90
51825;DHT22;37879;52.986;6.282;2023-10-31T05:47:05;10.00;99.90
51825;DHT22;37879;52.986;6.282;2023-10-31T05:49:30;10.00;99.90
51825;DHT22;37879;52.986;6.282;2023-10-31T05:51:56;10.00;99.90
51825;DHT22;37879;52.986;6.282;2023-10-31T05:54:21;10.00;99.90
51825;DHT22;37879;52.986;6.282;2023-10-31T05:56:47;10.00;99.90
51825;DHT22;37879;52.986;6.282;2023-10-31T05:59:13;10.00;99.90
51825;DHT22;37879;52.986;6.282;2023-10-31T06:01:39;10.10;99.90
51825;DHT22;37879;52.986;6.282;2023-10-31T06:04:05;10.10;99.90
51825;DHT22;37879;52.986;6.282;2023-10-31T06:06:32;10.00;99.90
51825;DHT22;37879;52.986;6.282;2023-10-31T06:08:58;10.10;99.90
51825;DHT22;37879;52.986;6.282;2023-10-31T06:11:25;10.20;99.90
51825;DHT22;37879;52.986;6.282;2023-10-31T06:13:50;10.00;99.90
51825;DHT22;37879;52.986;6.282;2023-10-31T06:16:16;10.00;99.90
51825;DHT22;37879;52.986;6.282;2023-10-31T06:18:42;10.00;99.90
51825;DHT22;37879;52.986;6.282;2023-10-31T06:21:08;10.00;99.90
51825;DHT22;37879;52.986;6.282;2023-10-31T06:23:36;10.00;99.90
51825;DHT22;37879;52.986;6.282;2023-10-31T06:26:02;10.50;99.90
51825;DHT22;37879;52.986;6.282;2023-10-31T06:28:28;10.00;99.90
51825;DHT22;37879;52.986;6.282;2023-10-31T06:30:53;10.00;99.90
51825;DHT22;37879;52.986;6.282;2023-10-31T06:33:19;10.00;99.90
51825;DHT22;37879;52.986;6.282;2023-10-31T06:35:44;10.00;99.90
51825;DHT22;37879;52.986;6.282;2023-10-31T06:38:10;10.10;99.90
51825;DHT22;37879;52.986;6.282;2023-10-31T06:40:36;10.00;99.90
51825;DHT22;37879;52.986;6.282;2023-10-31T06:43:02;9.90;99.90
51825;DHT22;37879;52.986;6.282;2023-10-31T06:45:27;9.90;99.90
51825;DHT22;37879;52.986;6.282;2023-10-31T06:47:54;9.90;99.90
51825;DHT22;37879;52.986;6.282;2023-10-31T06:50:19;10.00;99.90
51825;DHT22;37879;52.986;6.282;2023-10-31T06:52:45;10.00;99.90
51825;DHT22;37879;52.986;6.282;2023-10-31T06:55:10;10.10;99.90
51825;DHT22;37879;52.986;6.282;2023-10-31T06:57:36;10.10;99.90
51825;DHT22;37879;52.986;6.282;2023-10-31T07:00:03;10.20;99.90
51825;DHT22;37879;52.986;6.282;2023-10-31T07:02:28;10.20;99.90
51825;DHT22;37879;52.986;6.282;2023-10-31T07:04:54;9.80;99.90
51825;DHT22;37879;52.986;6.282;2023-10-31T07:07:20;10.30;99.90
51825;DHT22;37879;52.986;6.282;2023-10-31T07:09:46;10.20;99.90
51825;DHT22;37879;52.986;6.282;2023-10-31T07:12:11;10.20;99.90
51825;DHT22;37879;52.986;6.282;2023-10-31T07:14:37;10.20;99.90
51825;DHT22;37879;52.986;6.282;2023-10-31T07:17:03;10.30;99.90
51825;DHT22;37879;52.986;6.282;2023-10-31T07:19:28;10.30;99.90
51825;DHT22;37879;52.986;6.282;2023-10-31T07:21:54;10.30;99.90
51825;DHT22;37879;52.986;6.282;2023-10-31T07:24:20;10.30;99.90
51825;DHT22;37879;52.986;6.282;2023-10-31T07:26:45;10.30;99.90
51825;DHT22;37879;52.986;6.282;2023-10-31T07:29:11;10.70;99.90
51825;DHT22;37879;52.986;6.282;2023-10-31T07:31:37;10.30;99.90
51825;DHT22;37879;52.986;6.282;2023-10-31T07:34:05;10.30;99.90
51825;DHT22;37879;52.986;6.282;2023-10-31T07:36:31;10.30;99.90
51825;DHT22;37879;52.986;6.282;2023-10-31T07:39:00;10.30;99.90
51825;DHT22;37879;52.986;6.282;2023-10-31T07:41:26;10.30;99.90
51825;DHT22;37879;52.986;6.282;2023-10-31T07:43:52;10.30;99.90
51825;DHT22;37879;52.986;6.282;2023-10-31T07:46:17;10.30;99.90
51825;DHT22;37879;52.986;6.282;2023-10-31T07:48:44;10.30;99.90
51825;DHT22;37879;52.986;6.282;2023-10-31T07:51:10;10.40;99.90
51825;DHT22;37879;52.986;6.282;2023-10-31T07:53:35;10.40;99.90
51825;DHT22;37879;52.986;6.282;2023-10-31T07:56:01;10.50;99.90
51825;DHT22;37879;52.986;6.282;2023-10-31T07:58:27;10.50;99.90
51825;DHT22;37879;52.986;6.282;2023-10-31T08:00:52;10.60;99.90
51825;DHT22;37879;52.986;6.282;2023-10-31T08:03:18;10.60;99.90
51825;DHT22;37879;52.986;6.282;2023-10-31T08:05:43;10.60;99.90
51825;DHT22;37879;52.986;6.282;2023-10-31T08:08:09;10.60;99.90
51825;DHT22;37879;52.986;6.282;2023-10-31T08:10:35;10.60;99.90
51825;DHT22;37879;52.986;6.282;2023-10-31T08:13:00;10.60;99.90
51825;DHT22;37879;52.986;6.282;2023-10-31T08:15:26;10.70;99.90
51825;DHT22;37879;52.986;6.282;2023-10-31T08:17:52;10.70;99.90
51825;DHT22;37879;52.986;6.282;2023-10-31T08:20:17;10.80;99.90
51825;DHT22;37879;52.986;6.282;2023-10-31T08:22:44;10.80;99.90
51825;DHT22;37879;52.986;6.282;2023-10-31T08:25:10;10.70;99.90
51825;DHT22;37879;52.986;6.282;2023-10-31T08:27:36;10.70;99.90
51825;DHT22;37879;52.986;6.282;2023-10-31T08:30:02;10.70;99.90
51825;DHT22;37879;52.986;6.282;2023-10-31T08:32:27;10.70;99.90
51825;DHT22;37879;52.986;6.282;2023-10-31T08:34:54;10.70;99.90
51825;DHT22;37879;52.986;6.282;2023-10-31T08:37:20;10.70;99.90
51825;DHT22;37879;52.986;6.282;2023-10-31T08:39:45;10.80;99.90
51825;DHT22;37879;52.986;6.282;2023-10-31T08:42:11;10.80;99.90
51825;DHT22;37879;52.986;6.282;2023-10-31T08:44:36;10.80;99.90
51825;DHT22;37879;52.986;6.282;2023-10-31T08:47:03;10.90;99.90
51825;DHT22;37879;52.986;6.282;2023-10-31T08:49:29;11.00;99.90
51825;DHT22;37879;52.986;6.282;2023-10-31T08:51:55;11.10;99.90
51825;DHT22;37879;52.986;6.282;2023-10-31T08:54:20;11.10;99.90
51825;DHT22;37879;52.986;6.282;2023-10-31T08:56:46;11.20;99.90
51825;DHT22;37879;52.986;6.282;2023-10-31T08:59:12;11.50;99.90
51825;DHT22;37879;52.986;6.282;2023-10-31T09:01:38;11.40;99.90
51825;DHT22;37879;52.986;6.282;2023-10-31T09:04:03;11.40;99.90
51825;DHT22;37879;52.986;6.282;2023-10-31T09:06:29;11.40;99.90
51825;DHT22;37879;52.986;6.282;2023-10-31T09:08:55;11.30;99.90
51825;DHT22;37879;52.986;6.282;2023-10-31T09:11:20;11.50;99.90
51825;DHT22;37879;52.986;6.282;2023-10-31T09:13:46;11.50;99.90
51825;DHT22;37879;52.986;6.282;2023-10-31T09:16:12;11.20;99.90
51825;DHT22;37879;52.986;6.282;2023-10-31T09:18:39;11.10;99.90
51825;DHT22;37879;52.986;6.282;2023-10-31T09:21:04;11.00;99.90
51825;DHT22;37879;52.986;6.282;2023-10-31T09:23:30;11.00;99.90
51825;DHT22;37879;52.986;6.282;2023-10-31T09:25:56;11.00;99.90
51825;DHT22;37879;52.986;6.282;2023-10-31T09:28:22;11.00;99.90
51825;DHT22;37879;52.986;6.282;2023-10-31T09:30:48;10.90;99.90
51825;DHT22;37879;52.986;6.282;2023-10-31T09:33:14;11.00;99.90
51825;DHT22;37879;52.986;6.282;2023-10-31T09:35:39;10.90;99.90
51825;DHT22;37879;52.986;6.282;2023-10-31T09:38:05;11.00;99.90
51825;DHT22;37879;52.986;6.282;2023-10-31T09:40:31;11.00;99.90
51825;DHT22;37879;52.986;6.282;2023-10-31T09:42:56;11.10;99.90
51825;DHT22;37879;52.986;6.282;2023-10-31T09:45:22;11.10;99.90
51825;DHT22;37879;52.986;6.282;2023-10-31T09:47:48;11.10;99.90
51825;DHT22;37879;52.986;6.282;2023-10-31T09:50:13;11.10;99.90
51825;DHT22;37879;52.986;6.282;2023-10-31T09:52:39;11.30;99.90
51825;DHT22;37879;52.986;6.282;2023-10-31T09:55:05;11.10;99.90
51825;DHT22;37879;52.986;6.282;2023-10-31T09:57:32;11.00;99.90
51825;DHT22;37879;52.986;6.282;2023-10-31T09:59:58;11.00;99.90
51825;DHT22;37879;52.986;6.282;2023-10-31T10:02:24;11.00;99.90
51825;DHT22;37879;52.986;6.282;2023-10-31T10:04:50;11.00;99.90
51825;DHT22;37879;52.986;6.282;2023-10-31T10:07:17;11.10;99.90
51825;DHT22;37879;52.986;6.282;2023-10-31T10:09:44;11.00;99.90
51825;DHT22;37879;52.986;6.282;2023-10-31T10:12:12;11.00;99.90
51825;DHT22;37879;52.986;6.282;2023-10-31T10:14:39;11.00;99.90
51825;DHT22;37879;52.986;6.282;2023-10-31T10:17:22;11.00;99.90
51825;DHT22;37879;52.986;6.282;2023-10-31T10:19:48;11.10;99.90
51825;DHT22;37879;52.986;6.282;2023-10-31T10:22:14;11.10;99.90
51825;DHT22;37879;52.986;6.282;2023-10-31T10:24:41;11.20;99.90
51825;DHT22;37879;52.986;6.282;2023-10-31T10:27:10;11.20;99.90
51825;DHT22;37879;52.986;6.282;2023-10-31T10:29:37;11.30;99.90
51825;DHT22;37879;52.986;6.282;2023-10-31T10:32:06;11.30;99.90
51825;DHT22;37879;52.986;6.282;2023-10-31T10:34:34;11.40;99.90
51825;DHT22;37879;52.986;6.282;2023-10-31T10:37:01;11.40;99.90
51825;DHT22;37879;52.986;6.282;2023-10-31T10:39:32;11.40;99.90
51825;DHT22;37879;52.986;6.282;2023-10-31T10:42:00;11.40;99.90
51825;DHT22;37879;52.986;6.282;2023-10-31T10:44:33;11.50;99.90
51825;DHT22;37879;52.986;6.282;2023-10-31T10:47:05;11.40;99.90
51825;DHT22;37879;52.986;6.282;2023-10-31T10:49:35;11.40;99.90
51825;DHT22;37879;52.986;6.282;2023-10-31T10:54:39;11.30;99.90
51825;DHT22;37879;52.986;6.282;2023-10-31T10:57:14;11.30;99.90
51825;DHT22;37879;52.986;6.282;2023-10-31T10:59:49;11.30;99.90
51825;DHT22;37879;52.986;6.282;2023-10-31T11:02:17;11.40;99.90
51825;DHT22;37879;52.986;6.282;2023-10-31T11:04:43;11.40;99.90
51825;DHT22;37879;52.986;6.282;2023-10-31T11:07:10;11.40;99.90
51825;DHT22;37879;52.986;6.282;2023-10-31T11:09:36;11.40;99.90
51825;DHT22;37879;52.986;6.282;2023-10-31T11:12:03;11.40;99.90
51825;DHT22;37879;52.986;6.282;2023-10-31T11:14:31;11.30;99.90
51825;DHT22;37879;52.986;6.282;2023-10-31T11:17:00;11.40;99.90
51825;DHT22;37879;52.986;6.282;2023-10-31T11:19:29;11.50;99.90
51825;DHT22;37879;52.986;6.282;2023-10-31T11:21:59;11.50;99.90
51825;DHT22;37879;52.986;6.282;2023-10-31T11:24:32;11.50;99.90
51825;DHT22;37879;52.986;6.282;2023-10-31T11:27:01;11.40;99.90
51825;DHT22;37879;52.986;6.282;2023-10-31T11:29:27;11.40;99.90
51825;DHT22;37879;52.986;6.282;2023-10-31T11:31:56;11.40;99.90
51825;DHT22;37879;52.986;6.282;2023-10-31T11:34:23;11.40;99.90
51825;DHT22;37879;52.986;6.282;2023-10-31T11:36:51;11.40;99.90
51825;DHT22;37879;52.986;6.282;2023-10-31T11:39:21;11.40;99.90
51825;DHT22;37879;52.986;6.282;2023-10-31T11:41:54;11.40;99.90
51825;DHT22;37879;52.986;6.282;2023-10-31T11:44:26;11.40;99.90
51825;DHT22;37879;52.986;6.282;2023-10-31T11:46:52;11.60;99.90
51825;DHT22;37879;52.986;6.282;2023-10-31T11:52:03;11.50;99.90
51825;DHT22;37879;52.986;6.282;2023-10-31T11:54:39;11.60;99.90
51825;DHT22;37879;52.986;6.282;2023-10-31T11:57:04;11.60;99.90
51825;DHT22;37879;52.986;6.282;2023-10-31T11:59:36;11.60;99.90
51825;DHT22;37879;52.986;6.282;2023-10-31T12:02:13;11.50;99.90
51825;DHT22;37879;52.986;6.282;2023-10-31T12:04:39;11.60;99.90
51825;DHT22;37879;52.986;6.282;2023-10-31T12:07:05;11.60;99.90
51825;DHT22;37879;52.986;6.282;2023-10-31T12:09:31;11.50;99.90
51825;DHT22;37879;52.986;6.282;2023-10-31T12:11:56;11.50;99.90
51825;DHT22;37879;52.986;6.282;2023-10-31T12:14:22;11.30;99.90
51825;DHT22;37879;52.986;6.282;2023-10-31T12:16:48;11.30;99.90
51825;DHT22;37879;52.986;6.282;2023-10-31T12:19:13;11.20;99.90
51825;DHT22;37879;52.986;6.282;2023-10-31T12:21:44;11.20;99.90
51825;DHT22;37879;52.986;6.282;2023-10-31T12:24:14;11.10;99.90
51825;DHT22;37879;52.986;6.282;2023-10-31T12:26:40;11.10;99.90
51825;DHT22;37879;52.986;6.282;2023-10-31T12:31:42;11.00;99.90
51825;DHT22;37879;52.986;6.282;2023-10-31T12:34:07;11.00;99.90
51825;DHT22;37879;52.986;6.282;2023-10-31T12:36:35;11.00;99.90
51825;DHT22;37879;52.986;6.282;2023-10-31T12:39:02;11.00;99.90
51825;DHT22;37879;52.986;6.282;2023-10-31T12:41:29;11.00;99.90
51825;DHT22;37879;52.986;6.282;2023-10-31T12:43:55;11.00;99.90
51825;DHT22;37879;52.986;6.282;2023-10-31T12:46:27;11.00;99.90
51825;DHT22;37879;52.986;6.282;2023-10-31T12:48:55;11.10;99.90
51825;DHT22;37879;52.986;6.282;2023-10-31T12:51:20;11.10;99.90
51825;DHT22;37879;52.986;6.282;2023-10-31T12:53:50;11.10;99.90
51825;DHT22;37879;52.986;6.282;2023-10-31T12:56:38;11.10;99.90
51825;DHT22;37879;52.986;6.282;2023-10-31T12:59:09;11.10;99.90
51825;DHT22;37879;52.986;6.282;2023-10-31T13:01:43;11.20;99.90
51825;DHT22;37879;52.986;6.282;2023-10-31T13:04:08;11.30;99.90
51825;DHT22;37879;52.986;6.282;2023-10-31T13:06:35;11.20;99.90
51825;DHT22;37879;52.986;6.282;2023-10-31T13:09:01;11.30;99.90
51825;DHT22;37879;52.986;6.282;2023-10-31T13:11:31;11.30;99.90
51825;DHT22;37879;52.986;6.282;2023-10-31T13:13:57;11.30;99.90
51825;DHT22;37879;52.986;6.282;2023-10-31T13:16:24;11.30;99.90
51825;DHT22;37879;52.986;6.282;2023-10-31T13:18:53;11.30;99.90
51825;DHT22;37879;52.986;6.282;2023-10-31T13:21:19;11.30;99.90
51825;DHT22;37879;52.986;6.282;2023-10-31T13:23:45;11.30;99.90
51825;DHT22;37879;52.986;6.282;2023-10-31T13:26:14;11.20;99.90
51825;DHT22;37879;52.986;6.282;2023-10-31T13:28:40;11.20;99.90
51825;DHT22;37879;52.986;6.282;2023-10-31T13:31:06;11.20;99.90
51825;DHT22;37879;52.986;6.282;2023-10-31T13:33:35;11.20;99.90
51825;DHT22;37879;52.986;6.282;2023-10-31T13:36:01;11.20;99.90
51825;DHT22;37879;52.986;6.282;2023-10-31T13:38:26;11.20;99.90
51825;DHT22;37879;52.986;6.282;2023-10-31T13:40:52;11.20;99.90
51825;DHT22;37879;52.986;6.282;2023-10-31T13:43:21;11.10;99.90
51825;DHT22;37879;52.986;6.282;2023-10-31T13:45:46;11.20;99.90
51825;DHT22;37879;52.986;6.282;2023-10-31T13:48:12;11.20;99.90
51825;DHT22;37879;52.986;6.282;2023-10-31T13:50:40;11.40;99.90
51825;DHT22;37879;52.986;6.282;2023-10-31T13:53:06;11.30;99.90
51825;DHT22;37879;52.986;6.282;2023-10-31T13:55:33;11.40;99.90
51825;DHT22;37879;52.986;6.282;2023-10-31T13:57:58;11.50;99.90
51825;DHT22;37879;52.986;6.282;2023-10-31T14:00:24;11.60;99.90
51825;DHT22;37879;52.986;6.282;2023-10-31T14:02:50;11.70;99.90
51825;DHT22;37879;52.986;6.282;2023-10-31T14:05:15;11.70;99.90
51825;DHT22;37879;52.986;6.282;2023-10-31T14:07:41;11.70;99.90
51825;DHT22;37879;52.986;6.282;2023-10-31T14:10:07;11.80;99.90
51825;DHT22;37879;52.986;6.282;2023-10-31T14:12:33;11.80;99.90
51825;DHT22;37879;52.986;6.282;2023-10-31T14:14:59;11.80;99.90
51825;DHT22;37879;52.986;6.282;2023-10-31T14:17:24;11.70;99.90
51825;DHT22;37879;52.986;6.282;2023-10-31T14:19:50;11.70;99.90
51825;DHT22;37879;52.986;6.282;2023-10-31T14:22:16;11.70;99.90
51825;DHT22;37879;52.986;6.282;2023-10-31T14:24:41;11.70;99.90
51825;DHT22;37879;52.986;6.282;2023-10-31T14:27:07;11.80;99.90
51825;DHT22;37879;52.986;6.282;2023-10-31T14:29:33;11.80;99.90
51825;DHT22;37879;52.986;6.282;2023-10-31T14:32:08;11.70;99.90
51825;DHT22;37879;52.986;6.282;2023-10-31T14:34:35;11.60;99.90
51825;DHT22;37879;52.986;6.282;2023-10-31T14:37:01;11.50;99.90
51825;DHT22;37879;52.986;6.282;2023-10-31T14:39:26;11.40;99.90
51825;DHT22;37879;52.986;6.282;2023-10-31T14:41:52;11.40;99.90
51825;DHT22;37879;52.986;6.282;2023-10-31T14:44:18;11.40;99.90
51825;DHT22;37879;52.986;6.282;2023-10-31T14:46:44;11.40;99.90
51825;DHT22;37879;52.986;6.282;2023-10-31T14:49:09;11.30;99.90
51825;DHT22;37879;52.986;6.282;2023-10-31T14:51:36;11.20;99.90
51825;DHT22;37879;52.986;6.282;2023-10-31T14:54:01;11.20;99.90
51825;DHT22;37879;52.986;6.282;2023-10-31T14:56:27;11.10;99.90
51825;DHT22;37879;52.986;6.282;2023-10-31T14:58:54;11.00;99.90
51825;DHT22;37879;52.986;6.282;2023-10-31T15:01:20;11.00;99.90
51825;DHT22;37879;52.986;6.282;2023-10-31T15:03:46;11.00;99.90
51825;DHT22;37879;52.986;6.282;2023-10-31T15:06:12;11.00;99.90
51825;DHT22;37879;52.986;6.282;2023-10-31T15:08:38;10.90;99.90
51825;DHT22;37879;52.986;6.282;2023-10-31T15:11:04;10.90;99.90
51825;DHT22;37879;52.986;6.282;2023-10-31T15:13:29;10.90;99.90
51825;DHT22;37879;52.986;6.282;2023-10-31T15:15:56;10.80;99.90
51825;DHT22;37879;52.986;6.282;2023-10-31T15:18:22;10.80;99.90
51825;DHT22;37879;52.986;6.282;2023-10-31T15:20:47;10.80;99.90
51825;DHT22;37879;52.986;6.282;2023-10-31T15:23:13;10.70;99.90
51825;DHT22;37879;52.986;6.282;2023-10-31T15:25:40;10.80;99.90
51825;DHT22;37879;52.986;6.282;2023-10-31T15:28:06;10.80;99.90
51825;DHT22;37879;52.986;6.282;2023-10-31T15:30:32;10.80;99.90
51825;DHT22;37879;52.986;6.282;2023-10-31T15:32:58;10.70;99.90
51825;DHT22;37879;52.986;6.282;2023-10-31T15:35:24;10.70;99.90
51825;DHT22;37879;52.986;6.282;2023-10-31T15:37:50;10.70;99.90